sensor_id;sensor_type;location;lat;lon;timestamp;P1;durP1;ratioP1;P2;durP2;ratioP2
52104;SDS011;38103;42.776;23.112;2022-12-20T00:01:13;36.20;;;15.23;;
52104;SDS011;38103;42.776;23.112;2022-12-20T00:03:40;35.97;;;14.13;;
52104;SDS011;38103;42.776;23.112;2022-12-20T00:06:06;32.75;;;14.43;;
52104;SDS011;38103;42.776;23.112;2022-12-20T00:08:32;30.15;;;14.13;;
52104;SDS011;38103;42.776;23.112;2022-12-20T00:10:59;34.67;;;15.05;;
52104;SDS011;38103;42.776;23.112;2022-12-20T00:13:26;33.63;;;14.38;;
52104;SDS011;38103;42.776;23.112;2022-12-20T00:16:02;31.13;;;14.88;;
52104;SDS011;38103;42.776;23.112;2022-12-20T00:18:29;34.35;;;16.00;;
52104;SDS011;38103;42.776;23.112;2022-12-20T00:21:00;34.88;;;15.23;;
52104;SDS011;38103;42.776;23.112;2022-12-20T00:23:28;36.42;;;16.05;;
52104;SDS011;38103;42.776;23.112;2022-12-20T00:26:07;32.20;;;15.25;;
52104;SDS011;38103;42.776;23.112;2022-12-20T00:28:33;30.90;;;15.07;;
52104;SDS011;38103;42.776;23.112;2022-12-20T00:30:59;35.40;;;15.82;;
52104;SDS011;38103;42.776;23.112;2022-12-20T00:33:26;32.42;;;15.77;;
52104;SDS011;38103;42.776;23.112;2022-12-20T00:35:53;33.47;;;15.73;;
52104;SDS011;38103;42.776;23.112;2022-12-20T00:38:20;37.33;;;16.95;;
52104;SDS011;38103;42.776;23.112;2022-12-20T00:40:45;35.17;;;16.10;;
52104;SDS011;38103;42.776;23.112;2022-12-20T00:43:11;27.40;;;13.65;;
52104;SDS011;38103;42.776;23.112;2022-12-20T00:45:36;33.53;;;14.95;;
52104;SDS011;38103;42.776;23.112;2022-12-20T00:48:02;35.88;;;15.98;;
52104;SDS011;38103;42.776;23.112;2022-12-20T00:50:28;31.45;;;16.23;;
52104;SDS011;38103;42.776;23.112;2022-12-20T00:52:53;34.85;;;16.10;;
52104;SDS011;38103;42.776;23.112;2022-12-20T00:55:19;32.15;;;15.10;;
52104;SDS011;38103;42.776;23.112;2022-12-20T00:57:44;29.58;;;15.50;;
52104;SDS011;38103;42.776;23.112;2022-12-20T01:00:10;33.08;;;15.88;;
52104;SDS011;38103;42.776;23.112;2022-12-20T01:02:35;32.33;;;14.82;;
52104;SDS011;38103;42.776;23.112;2022-12-20T01:05:01;32.65;;;15.25;;
52104;SDS011;38103;42.776;23.112;2022-12-20T01:07:26;29.70;;;14.57;;
52104;SDS011;38103;42.776;23.112;2022-12-20T01:09:51;29.95;;;14.57;;
52104;SDS011;38103;42.776;23.112;2022-12-20T01:12:17;31.92;;;14.88;;
52104;SDS011;38103;42.776;23.112;2022-12-20T01:14:42;29.67;;;14.77;;
52104;SDS011;38103;42.776;23.112;2022-12-20T01:17:08;31.63;;;15.48;;
52104;SDS011;38103;42.776;23.112;2022-12-20T01:19:33;34.90;;;15.23;;
52104;SDS011;38103;42.776;23.112;2022-12-20T01:21:59;32.80;;;14.95;;
52104;SDS011;38103;42.776;23.112;2022-12-20T01:24:24;34.65;;;14.73;;
52104;SDS011;38103;42.776;23.112;2022-12-20T01:26:50;31.23;;;14.02;;
52104;SDS011;38103;42.776;23.112;2022-12-20T01:29:15;30.10;;;14.45;;
52104;SDS011;38103;42.776;23.112;2022-12-20T01:31:40;31.00;;;14.68;;
52104;SDS011;38103;42.776;23.112;2022-12-20T01:34:06;29.92;;;14.57;;
52104;SDS011;38103;42.776;23.112;2022-12-20T01:36:32;30.80;;;14.48;;
52104;SDS011;38103;42.776;23.112;2022-12-20T01:39:10;30.75;;;14.88;;
52104;SDS011;38103;42.776;23.112;2022-12-20T01:41:37;29.00;;;15.02;;
52104;SDS011;38103;42.776;23.112;2022-12-20T01:44:04;31.50;;;13.48;;
52104;SDS011;38103;42.776;23.112;2022-12-20T01:46:30;26.48;;;12.93;;
52104;SDS011;38103;42.776;23.112;2022-12-20T01:54:24;29.48;;;13.20;;
52104;SDS011;38103;42.776;23.112;2022-12-20T01:56:58;27.40;;;12.02;;
52104;SDS011;38103;42.776;23.112;2022-12-20T01:59:27;25.15;;;12.60;;
52104;SDS011;38103;42.776;23.112;2022-12-20T02:01:58;26.02;;;13.00;;
52104;SDS011;38103;42.776;23.112;2022-12-20T02:04:28;24.63;;;11.85;;
52104;SDS011;38103;42.776;23.112;2022-12-20T02:06:54;28.33;;;12.90;;
52104;SDS011;38103;42.776;23.112;2022-12-20T02:09:20;23.35;;;11.68;;
52104;SDS011;38103;42.776;23.112;2022-12-20T02:22:51;23.60;;;11.93;;
52104;SDS011;38103;42.776;23.112;2022-12-20T02:25:41;26.55;;;11.57;;
52104;SDS011;38103;42.776;23.112;2022-12-20T02:31:26;26.38;;;12.23;;
52104;SDS011;38103;42.776;23.112;2022-12-20T02:33:58;23.58;;;11.70;;
52104;SDS011;38103;42.776;23.112;2022-12-20T02:36:24;27.00;;;11.63;;
52104;SDS011;38103;42.776;23.112;2022-12-20T02:38:50;25.80;;;11.40;;
52104;SDS011;38103;42.776;23.112;2022-12-20T02:41:20;26.15;;;12.50;;
52104;SDS011;38103;42.776;23.112;2022-12-20T02:43:47;28.38;;;13.07;;
52104;SDS011;38103;42.776;23.112;2022-12-20T02:46:34;27.08;;;12.57;;
52104;SDS011;38103;42.776;23.112;2022-12-20T02:49:02;27.00;;;12.13;;
52104;SDS011;38103;42.776;23.112;2022-12-20T02:51:39;24.83;;;12.10;;
52104;SDS011;38103;42.776;23.112;2022-12-20T02:54:07;25.02;;;11.93;;
52104;SDS011;38103;42.776;23.112;2022-12-20T02:59:46;24.23;;;11.77;;
52104;SDS011;38103;42.776;23.112;2022-12-20T03:02:19;26.20;;;12.13;;
52104;SDS011;38103;42.776;23.112;2022-12-20T03:04:45;23.92;;;11.55;;
52104;SDS011;38103;42.776;23.112;2022-12-20T03:07:13;25.70;;;11.85;;
52104;SDS011;38103;42.776;23.112;2022-12-20T03:09:40;27.40;;;11.73;;
52104;SDS011;38103;42.776;23.112;2022-12-20T03:12:07;23.30;;;11.93;;
52104;SDS011;38103;42.776;23.112;2022-12-20T03:14:35;24.08;;;12.02;;
52104;SDS011;38103;42.776;23.112;2022-12-20T03:17:01;24.77;;;12.20;;
52104;SDS011;38103;42.776;23.112;2022-12-20T03:19:26;27.42;;;11.35;;
52104;SDS011;38103;42.776;23.112;2022-12-20T03:21:52;26.15;;;12.15;;
52104;SDS011;38103;42.776;23.112;2022-12-20T03:24:17;26.33;;;11.75;;
52104;SDS011;38103;42.776;23.112;2022-12-20T03:26:43;25.90;;;11.48;;
52104;SDS011;38103;42.776;23.112;2022-12-20T03:29:08;24.45;;;11.38;;
52104;SDS011;38103;42.776;23.112;2022-12-20T03:31:34;27.30;;;11.98;;
52104;SDS011;38103;42.776;23.112;2022-12-20T03:34:00;25.67;;;12.15;;
52104;SDS011;38103;42.776;23.112;2022-12-20T03:36:25;26.63;;;11.73;;
52104;SDS011;38103;42.776;23.112;2022-12-20T03:38:51;27.52;;;12.02;;
52104;SDS011;38103;42.776;23.112;2022-12-20T03:41:18;22.33;;;11.85;;
52104;SDS011;38103;42.776;23.112;2022-12-20T03:43:43;22.45;;;11.40;;
52104;SDS011;38103;42.776;23.112;2022-12-20T03:46:09;23.90;;;11.13;;
52104;SDS011;38103;42.776;23.112;2022-12-20T03:48:35;25.20;;;10.50;;
52104;SDS011;38103;42.776;23.112;2022-12-20T03:51:00;23.45;;;10.65;;
52104;SDS011;38103;42.776;23.112;2022-12-20T03:53:26;28.50;;;11.80;;
52104;SDS011;38103;42.776;23.112;2022-12-20T03:55:51;25.88;;;11.75;;
52104;SDS011;38103;42.776;23.112;2022-12-20T03:58:16;25.33;;;11.40;;
52104;SDS011;38103;42.776;23.112;2022-12-20T04:00:42;24.73;;;12.27;;
52104;SDS011;38103;42.776;23.112;2022-12-20T04:03:07;27.67;;;12.75;;
52104;SDS011;38103;42.776;23.112;2022-12-20T04:05:33;22.08;;;11.00;;
52104;SDS011;38103;42.776;23.112;2022-12-20T04:07:58;23.20;;;12.27;;
52104;SDS011;38103;42.776;23.112;2022-12-20T04:10:24;24.80;;;11.82;;
52104;SDS011;38103;42.776;23.112;2022-12-20T04:12:49;24.95;;;12.45;;
52104;SDS011;38103;42.776;23.112;2022-12-20T04:15:15;27.02;;;12.65;;
52104;SDS011;38103;42.776;23.112;2022-12-20T04:17:40;27.08;;;13.90;;
52104;SDS011;38103;42.776;23.112;2022-12-20T04:20:06;26.90;;;12.13;;
52104;SDS011;38103;42.776;23.112;2022-12-20T04:22:47;28.75;;;13.00;;
52104;SDS011;38103;42.776;23.112;2022-12-20T04:25:14;24.30;;;12.35;;
52104;SDS011;38103;42.776;23.112;2022-12-20T04:27:41;23.90;;;11.95;;
52104;SDS011;38103;42.776;23.112;2022-12-20T04:30:07;30.73;;;13.43;;
52104;SDS011;38103;42.776;23.112;2022-12-20T04:32:33;28.98;;;14.15;;
52104;SDS011;38103;42.776;23.112;2022-12-20T04:34:59;31.30;;;14.38;;
52104;SDS011;38103;42.776;23.112;2022-12-20T04:37:24;29.02;;;14.85;;
52104;SDS011;38103;42.776;23.112;2022-12-20T04:39:49;28.77;;;13.75;;
52104;SDS011;38103;42.776;23.112;2022-12-20T04:42:15;33.03;;;14.93;;
52104;SDS011;38103;42.776;23.112;2022-12-20T04:44:40;32.97;;;14.30;;
52104;SDS011;38103;42.776;23.112;2022-12-20T04:47:05;29.02;;;15.05;;
52104;SDS011;38103;42.776;23.112;2022-12-20T04:49:31;30.05;;;14.75;;
52104;SDS011;38103;42.776;23.112;2022-12-20T04:51:56;33.85;;;15.95;;
52104;SDS011;38103;42.776;23.112;2022-12-20T04:54:41;30.15;;;14.65;;
52104;SDS011;38103;42.776;23.112;2022-12-20T04:57:07;35.67;;;15.70;;
52104;SDS011;38103;42.776;23.112;2022-12-20T04:59:33;34.15;;;16.15;;
52104;SDS011;38103;42.776;23.112;2022-12-20T05:01:59;29.92;;;16.20;;
52104;SDS011;38103;42.776;23.112;2022-12-20T05:04:25;29.45;;;15.35;;
52104;SDS011;38103;42.776;23.112;2022-12-20T05:06:50;30.38;;;15.95;;
52104;SDS011;38103;42.776;23.112;2022-12-20T05:09:16;33.22;;;16.67;;
52104;SDS011;38103;42.776;23.112;2022-12-20T05:11:41;33.20;;;16.83;;
52104;SDS011;38103;42.776;23.112;2022-12-20T05:14:06;35.40;;;17.52;;
52104;SDS011;38103;42.776;23.112;2022-12-20T05:16:32;35.72;;;16.38;;
52104;SDS011;38103;42.776;23.112;2022-12-20T05:18:57;36.90;;;17.55;;
52104;SDS011;38103;42.776;23.112;2022-12-20T05:21:22;37.20;;;18.17;;
52104;SDS011;38103;42.776;23.112;2022-12-20T05:26:51;33.97;;;17.98;;
52104;SDS011;38103;42.776;23.112;2022-12-20T05:29:17;30.60;;;16.50;;
52104;SDS011;38103;42.776;23.112;2022-12-20T05:31:42;34.70;;;16.75;;
52104;SDS011;38103;42.776;23.112;2022-12-20T05:34:08;35.17;;;16.75;;
52104;SDS011;38103;42.776;23.112;2022-12-20T05:36:33;32.80;;;17.92;;
52104;SDS011;38103;42.776;23.112;2022-12-20T05:38:59;34.22;;;16.52;;
52104;SDS011;38103;42.776;23.112;2022-12-20T05:41:24;32.88;;;16.35;;
52104;SDS011;38103;42.776;23.112;2022-12-20T05:43:50;30.45;;;17.52;;
52104;SDS011;38103;42.776;23.112;2022-12-20T05:46:15;32.88;;;16.63;;
52104;SDS011;38103;42.776;23.112;2022-12-20T05:48:41;33.90;;;18.38;;
52104;SDS011;38103;42.776;23.112;2022-12-20T05:51:06;32.88;;;16.80;;
52104;SDS011;38103;42.776;23.112;2022-12-20T05:53:32;35.95;;;19.02;;
52104;SDS011;38103;42.776;23.112;2022-12-20T05:55:58;35.72;;;18.67;;
52104;SDS011;38103;42.776;23.112;2022-12-20T05:58:25;34.20;;;17.45;;
52104;SDS011;38103;42.776;23.112;2022-12-20T06:00:50;35.53;;;18.35;;
52104;SDS011;38103;42.776;23.112;2022-12-20T06:03:16;35.85;;;17.27;;
52104;SDS011;38103;42.776;23.112;2022-12-20T06:05:41;34.15;;;17.65;;
52104;SDS011;38103;42.776;23.112;2022-12-20T06:08:08;36.95;;;18.30;;
52104;SDS011;38103;42.776;23.112;2022-12-20T06:10:34;36.78;;;18.08;;
52104;SDS011;38103;42.776;23.112;2022-12-20T06:13:00;38.25;;;18.02;;
52104;SDS011;38103;42.776;23.112;2022-12-20T06:15:27;37.13;;;17.83;;
52104;SDS011;38103;42.776;23.112;2022-12-20T06:17:53;35.17;;;18.02;;
52104;SDS011;38103;42.776;23.112;2022-12-20T06:20:18;34.72;;;16.30;;
52104;SDS011;38103;42.776;23.112;2022-12-20T06:22:44;31.10;;;16.65;;
52104;SDS011;38103;42.776;23.112;2022-12-20T06:25:09;32.90;;;16.35;;
52104;SDS011;38103;42.776;23.112;2022-12-20T06:27:36;35.03;;;17.27;;
52104;SDS011;38103;42.776;23.112;2022-12-20T06:30:05;33.38;;;16.85;;
52104;SDS011;38103;42.776;23.112;2022-12-20T06:32:32;34.00;;;17.00;;
52104;SDS011;38103;42.776;23.112;2022-12-20T06:34:57;36.78;;;17.73;;
52104;SDS011;38103;42.776;23.112;2022-12-20T06:37:23;34.88;;;16.48;;
52104;SDS011;38103;42.776;23.112;2022-12-20T06:39:48;33.17;;;16.08;;
52104;SDS011;38103;42.776;23.112;2022-12-20T06:42:13;33.67;;;16.90;;
52104;SDS011;38103;42.776;23.112;2022-12-20T06:44:39;32.05;;;16.50;;
52104;SDS011;38103;42.776;23.112;2022-12-20T06:47:04;36.30;;;17.35;;
52104;SDS011;38103;42.776;23.112;2022-12-20T06:49:30;31.20;;;17.02;;
52104;SDS011;38103;42.776;23.112;2022-12-20T06:51:55;32.53;;;16.90;;
52104;SDS011;38103;42.776;23.112;2022-12-20T06:54:20;34.38;;;17.02;;
52104;SDS011;38103;42.776;23.112;2022-12-20T06:56:46;34.55;;;16.95;;
52104;SDS011;38103;42.776;23.112;2022-12-20T06:59:11;34.80;;;17.98;;
52104;SDS011;38103;42.776;23.112;2022-12-20T07:01:36;40.30;;;19.05;;
52104;SDS011;38103;42.776;23.112;2022-12-20T07:04:02;38.35;;;19.20;;
52104;SDS011;38103;42.776;23.112;2022-12-20T07:06:28;40.55;;;20.55;;
52104;SDS011;38103;42.776;23.112;2022-12-20T07:08:53;46.05;;;22.35;;
52104;SDS011;38103;42.776;23.112;2022-12-20T07:11:19;56.13;;;24.42;;
52104;SDS011;38103;42.776;23.112;2022-12-20T07:13:44;61.60;;;26.60;;
52104;SDS011;38103;42.776;23.112;2022-12-20T07:16:10;46.03;;;23.00;;
52104;SDS011;38103;42.776;23.112;2022-12-20T07:18:35;42.40;;;21.02;;
52104;SDS011;38103;42.776;23.112;2022-12-20T07:21:01;51.05;;;25.60;;
52104;SDS011;38103;42.776;23.112;2022-12-20T07:23:28;58.22;;;29.15;;
52104;SDS011;38103;42.776;23.112;2022-12-20T07:25:54;53.70;;;27.13;;
52104;SDS011;38103;42.776;23.112;2022-12-20T07:28:20;53.50;;;25.27;;
52104;SDS011;38103;42.776;23.112;2022-12-20T07:30:46;52.38;;;24.35;;
52104;SDS011;38103;42.776;23.112;2022-12-20T07:33:11;55.78;;;25.27;;
52104;SDS011;38103;42.776;23.112;2022-12-20T07:35:37;51.78;;;26.48;;
52104;SDS011;38103;42.776;23.112;2022-12-20T07:38:02;45.10;;;22.08;;
52104;SDS011;38103;42.776;23.112;2022-12-20T07:40:27;48.08;;;22.75;;
52104;SDS011;38103;42.776;23.112;2022-12-20T07:42:53;47.13;;;23.30;;
52104;SDS011;38103;42.776;23.112;2022-12-20T07:45:18;39.88;;;21.85;;
52104;SDS011;38103;42.776;23.112;2022-12-20T07:47:43;40.35;;;21.50;;
52104;SDS011;38103;42.776;23.112;2022-12-20T07:50:09;40.38;;;19.75;;
52104;SDS011;38103;42.776;23.112;2022-12-20T07:52:35;40.05;;;21.23;;
52104;SDS011;38103;42.776;23.112;2022-12-20T07:55:03;45.00;;;22.55;;
52104;SDS011;38103;42.776;23.112;2022-12-20T07:57:36;39.45;;;21.73;;
52104;SDS011;38103;42.776;23.112;2022-12-20T08:00:06;36.05;;;19.92;;
52104;SDS011;38103;42.776;23.112;2022-12-20T08:02:34;42.00;;;20.23;;
52104;SDS011;38103;42.776;23.112;2022-12-20T08:05:04;39.28;;;20.67;;
52104;SDS011;38103;42.776;23.112;2022-12-20T08:07:32;45.35;;;22.48;;
52104;SDS011;38103;42.776;23.112;2022-12-20T08:09:58;42.67;;;23.60;;
52104;SDS011;38103;42.776;23.112;2022-12-20T08:12:25;38.45;;;20.70;;
52104;SDS011;38103;42.776;23.112;2022-12-20T08:14:53;43.15;;;19.65;;
52104;SDS011;38103;42.776;23.112;2022-12-20T08:17:20;34.38;;;18.13;;
52104;SDS011;38103;42.776;23.112;2022-12-20T08:19:46;35.15;;;18.02;;
52104;SDS011;38103;42.776;23.112;2022-12-20T08:22:12;35.00;;;17.48;;
52104;SDS011;38103;42.776;23.112;2022-12-20T08:24:38;37.33;;;19.58;;
52104;SDS011;38103;42.776;23.112;2022-12-20T08:27:03;37.50;;;19.15;;
52104;SDS011;38103;42.776;23.112;2022-12-20T08:29:29;35.03;;;18.25;;
52104;SDS011;38103;42.776;23.112;2022-12-20T08:31:54;37.13;;;19.13;;
52104;SDS011;38103;42.776;23.112;2022-12-20T08:34:20;40.22;;;17.55;;
52104;SDS011;38103;42.776;23.112;2022-12-20T08:36:45;30.85;;;15.63;;
52104;SDS011;38103;42.776;23.112;2022-12-20T08:39:11;30.23;;;15.15;;
52104;SDS011;38103;42.776;23.112;2022-12-20T08:41:36;29.38;;;15.90;;
52104;SDS011;38103;42.776;23.112;2022-12-20T08:44:02;27.45;;;13.40;;
52104;SDS011;38103;42.776;23.112;2022-12-20T08:46:29;32.67;;;13.23;;
52104;SDS011;38103;42.776;23.112;2022-12-20T08:48:54;25.23;;;12.40;;
52104;SDS011;38103;42.776;23.112;2022-12-20T08:51:19;30.70;;;14.15;;
52104;SDS011;38103;42.776;23.112;2022-12-20T08:53:45;28.15;;;13.63;;
52104;SDS011;38103;42.776;23.112;2022-12-20T08:56:11;27.35;;;14.13;;
52104;SDS011;38103;42.776;23.112;2022-12-20T08:58:39;73.13;;;26.92;;
52104;SDS011;38103;42.776;23.112;2022-12-20T09:01:05;33.05;;;14.65;;
52104;SDS011;38103;42.776;23.112;2022-12-20T09:03:34;26.88;;;13.00;;
52104;SDS011;38103;42.776;23.112;2022-12-20T09:06:00;28.73;;;14.45;;
52104;SDS011;38103;42.776;23.112;2022-12-20T09:08:28;27.13;;;13.25;;
52104;SDS011;38103;42.776;23.112;2022-12-20T09:11:01;26.75;;;14.30;;
52104;SDS011;38103;42.776;23.112;2022-12-20T09:13:28;27.52;;;13.57;;
52104;SDS011;38103;42.776;23.112;2022-12-20T09:15:53;28.63;;;13.05;;
52104;SDS011;38103;42.776;23.112;2022-12-20T09:18:18;23.88;;;12.55;;
52104;SDS011;38103;42.776;23.112;2022-12-20T09:20:44;26.67;;;13.02;;
52104;SDS011;38103;42.776;23.112;2022-12-20T09:23:09;29.77;;;14.02;;
52104;SDS011;38103;42.776;23.112;2022-12-20T09:25:35;25.70;;;12.77;;
52104;SDS011;38103;42.776;23.112;2022-12-20T09:28:01;27.50;;;12.82;;
52104;SDS011;38103;42.776;23.112;2022-12-20T09:30:27;29.95;;;15.57;;
52104;SDS011;38103;42.776;23.112;2022-12-20T09:32:52;43.63;;;22.42;;
52104;SDS011;38103;42.776;23.112;2022-12-20T09:35:18;28.75;;;15.02;;
52104;SDS011;38103;42.776;23.112;2022-12-20T09:37:44;26.23;;;13.77;;
52104;SDS011;38103;42.776;23.112;2022-12-20T09:40:13;31.52;;;15.48;;
52104;SDS011;38103;42.776;23.112;2022-12-20T09:42:43;30.33;;;15.18;;
52104;SDS011;38103;42.776;23.112;2022-12-20T09:45:10;27.60;;;14.13;;
52104;SDS011;38103;42.776;23.112;2022-12-20T09:47:58;30.90;;;14.05;;
52104;SDS011;38103;42.776;23.112;2022-12-20T09:50:33;29.90;;;14.25;;
52104;SDS011;38103;42.776;23.112;2022-12-20T09:53:13;32.92;;;14.77;;
52104;SDS011;38103;42.776;23.112;2022-12-20T09:56:10;26.15;;;14.50;;
52104;SDS011;38103;42.776;23.112;2022-12-20T10:01:19;27.45;;;13.75;;
52104;SDS011;38103;42.776;23.112;2022-12-20T10:03:48;29.48;;;14.07;;
52104;SDS011;38103;42.776;23.112;2022-12-20T10:08:58;28.98;;;13.93;;
52104;SDS011;38103;42.776;23.112;2022-12-20T10:16:49;29.40;;;14.63;;
52104;SDS011;38103;42.776;23.112;2022-12-20T10:21:54;29.45;;;14.68;;
52104;SDS011;38103;42.776;23.112;2022-12-20T10:24:36;27.90;;;14.27;;
52104;SDS011;38103;42.776;23.112;2022-12-20T10:27:13;26.40;;;13.60;;
52104;SDS011;38103;42.776;23.112;2022-12-20T10:29:41;27.10;;;13.32;;
52104;SDS011;38103;42.776;23.112;2022-12-20T10:32:14;26.08;;;13.93;;
52104;SDS011;38103;42.776;23.112;2022-12-20T10:37:36;31.73;;;15.98;;
52104;SDS011;38103;42.776;23.112;2022-12-20T10:40:02;31.75;;;15.02;;
52104;SDS011;38103;42.776;23.112;2022-12-20T10:42:38;27.13;;;13.82;;
52104;SDS011;38103;42.776;23.112;2022-12-20T10:45:53;27.15;;;13.68;;
52104;SDS011;38103;42.776;23.112;2022-12-20T10:47:58;27.65;;;14.05;;
52104;SDS011;38103;42.776;23.112;2022-12-20T10:50:24;27.52;;;13.70;;
52104;SDS011;38103;42.776;23.112;2022-12-20T10:55:49;26.27;;;13.02;;
52104;SDS011;38103;42.776;23.112;2022-12-20T10:58:19;25.92;;;13.50;;
52104;SDS011;38103;42.776;23.112;2022-12-20T11:01:02;30.77;;;15.25;;
52104;SDS011;38103;42.776;23.112;2022-12-20T11:03:30;27.95;;;14.00;;
52104;SDS011;38103;42.776;23.112;2022-12-20T11:05:59;26.80;;;13.18;;
52104;SDS011;38103;42.776;23.112;2022-12-20T11:08:28;28.13;;;13.10;;
52104;SDS011;38103;42.776;23.112;2022-12-20T11:11:19;27.45;;;12.65;;
52104;SDS011;38103;42.776;23.112;2022-12-20T11:13:49;24.77;;;12.40;;
52104;SDS011;38103;42.776;23.112;2022-12-20T11:19:01;24.55;;;11.82;;
52104;SDS011;38103;42.776;23.112;2022-12-20T11:21:42;27.73;;;12.95;;
52104;SDS011;38103;42.776;23.112;2022-12-20T11:27:26;26.67;;;12.98;;
52104;SDS011;38103;42.776;23.112;2022-12-20T11:35:46;27.38;;;13.55;;
52104;SDS011;38103;42.776;23.112;2022-12-20T11:44:22;26.55;;;12.80;;
52104;SDS011;38103;42.776;23.112;2022-12-20T11:49:38;26.20;;;14.18;;
52104;SDS011;38103;42.776;23.112;2022-12-20T11:52:13;28.00;;;13.50;;
52104;SDS011;38103;42.776;23.112;2022-12-20T11:54:46;26.77;;;13.23;;
52104;SDS011;38103;42.776;23.112;2022-12-20T11:57:27;26.67;;;13.02;;
52104;SDS011;38103;42.776;23.112;2022-12-20T11:59:59;31.23;;;13.38;;
52104;SDS011;38103;42.776;23.112;2022-12-20T12:02:36;27.08;;;14.07;;
52104;SDS011;38103;42.776;23.112;2022-12-20T12:05:06;28.52;;;13.20;;
52104;SDS011;38103;42.776;23.112;2022-12-20T12:07:43;27.98;;;14.05;;
52104;SDS011;38103;42.776;23.112;2022-12-20T12:10:16;25.38;;;13.98;;
52104;SDS011;38103;42.776;23.112;2022-12-20T12:12:47;38.17;;;16.48;;
52104;SDS011;38103;42.776;23.112;2022-12-20T12:15:27;28.02;;;14.07;;
52104;SDS011;38103;42.776;23.112;2022-12-20T12:20:40;28.45;;;14.05;;
52104;SDS011;38103;42.776;23.112;2022-12-20T12:23:26;27.70;;;14.00;;
52104;SDS011;38103;42.776;23.112;2022-12-20T12:25:54;30.00;;;14.73;;
52104;SDS011;38103;42.776;23.112;2022-12-20T12:28:19;25.85;;;13.25;;
52104;SDS011;38103;42.776;23.112;2022-12-20T12:30:48;27.05;;;13.70;;
52104;SDS011;38103;42.776;23.112;2022-12-20T12:33:24;27.70;;;13.15;;
52104;SDS011;38103;42.776;23.112;2022-12-20T12:38:58;29.63;;;13.15;;
52104;SDS011;38103;42.776;23.112;2022-12-20T12:45:04;31.15;;;13.15;;
52104;SDS011;38103;42.776;23.112;2022-12-20T12:47:39;24.80;;;12.70;;
52104;SDS011;38103;42.776;23.112;2022-12-20T12:50:27;30.10;;;13.23;;
52104;SDS011;38103;42.776;23.112;2022-12-20T12:52:56;26.30;;;13.27;;
52104;SDS011;38103;42.776;23.112;2022-12-20T12:55:39;26.63;;;13.43;;
52104;SDS011;38103;42.776;23.112;2022-12-20T13:00:52;29.35;;;13.98;;
52104;SDS011;38103;42.776;23.112;2022-12-20T13:03:39;26.77;;;13.50;;
52104;SDS011;38103;42.776;23.112;2022-12-20T13:11:32;33.45;;;13.00;;
52104;SDS011;38103;42.776;23.112;2022-12-20T13:16:46;25.90;;;12.57;;
52104;SDS011;38103;42.776;23.112;2022-12-20T13:21:52;25.13;;;12.45;;
52104;SDS011;38103;42.776;23.112;2022-12-20T13:32:52;25.23;;;13.32;;
52104;SDS011;38103;42.776;23.112;2022-12-20T13:37:50;31.20;;;13.13;;
52104;SDS011;38103;42.776;23.112;2022-12-20T13:40:18;29.17;;;12.52;;
52104;SDS011;38103;42.776;23.112;2022-12-20T13:42:50;29.13;;;13.65;;
52104;SDS011;38103;42.776;23.112;2022-12-20T13:45:18;29.35;;;13.48;;
52104;SDS011;38103;42.776;23.112;2022-12-20T13:47:48;25.98;;;13.52;;
52104;SDS011;38103;42.776;23.112;2022-12-20T13:52:59;30.33;;;13.38;;
52104;SDS011;38103;42.776;23.112;2022-12-20T13:55:36;25.58;;;12.75;;
52104;SDS011;38103;42.776;23.112;2022-12-20T13:58:25;26.40;;;13.02;;
52104;SDS011;38103;42.776;23.112;2022-12-20T14:00:52;25.45;;;12.55;;
52104;SDS011;38103;42.776;23.112;2022-12-20T14:03:27;28.75;;;13.07;;
52104;SDS011;38103;42.776;23.112;2022-12-20T14:05:56;27.27;;;13.73;;
52104;SDS011;38103;42.776;23.112;2022-12-20T14:08:26;25.58;;;13.27;;
52104;SDS011;38103;42.776;23.112;2022-12-20T14:10:54;30.25;;;12.82;;
52104;SDS011;38103;42.776;23.112;2022-12-20T14:13:24;25.65;;;13.50;;
52104;SDS011;38103;42.776;23.112;2022-12-20T14:15:50;27.58;;;12.80;;
52104;SDS011;38103;42.776;23.112;2022-12-20T14:18:25;28.05;;;12.52;;
52104;SDS011;38103;42.776;23.112;2022-12-20T14:20:55;26.58;;;12.27;;
52104;SDS011;38103;42.776;23.112;2022-12-20T14:23:30;30.92;;;13.73;;
52104;SDS011;38103;42.776;23.112;2022-12-20T14:26:01;29.13;;;14.02;;
52104;SDS011;38103;42.776;23.112;2022-12-20T14:36:34;26.45;;;12.27;;
52104;SDS011;38103;42.776;23.112;2022-12-20T14:39:29;24.20;;;12.68;;
52104;SDS011;38103;42.776;23.112;2022-12-20T14:44:34;29.17;;;11.90;;
52104;SDS011;38103;42.776;23.112;2022-12-20T14:47:00;25.05;;;11.25;;
52104;SDS011;38103;42.776;23.112;2022-12-20T14:49:32;27.38;;;11.40;;
52104;SDS011;38103;42.776;23.112;2022-12-20T14:52:11;24.00;;;11.82;;
52104;SDS011;38103;42.776;23.112;2022-12-20T14:57:36;61.15;;;23.80;;
52104;SDS011;38103;42.776;23.112;2022-12-20T15:02:45;26.10;;;12.68;;
52104;SDS011;38103;42.776;23.112;2022-12-20T15:05:58;27.83;;;12.25;;
52104;SDS011;38103;42.776;23.112;2022-12-20T15:13:19;26.02;;;12.40;;
52104;SDS011;38103;42.776;23.112;2022-12-20T15:15:46;24.08;;;12.00;;
52104;SDS011;38103;42.776;23.112;2022-12-20T15:18:15;30.02;;;11.38;;
52104;SDS011;38103;42.776;23.112;2022-12-20T15:20:43;22.85;;;10.52;;
52104;SDS011;38103;42.776;23.112;2022-12-20T15:23:12;26.42;;;11.25;;
52104;SDS011;38103;42.776;23.112;2022-12-20T15:25:40;27.25;;;11.23;;
52104;SDS011;38103;42.776;23.112;2022-12-20T15:28:11;21.77;;;11.35;;
52104;SDS011;38103;42.776;23.112;2022-12-20T15:30:44;26.98;;;11.27;;
52104;SDS011;38103;42.776;23.112;2022-12-20T15:33:15;25.10;;;11.45;;
52104;SDS011;38103;42.776;23.112;2022-12-20T15:35:42;24.58;;;11.90;;
52104;SDS011;38103;42.776;23.112;2022-12-20T15:38:13;28.95;;;12.23;;
52104;SDS011;38103;42.776;23.112;2022-12-20T15:40:43;31.23;;;13.50;;
52104;SDS011;38103;42.776;23.112;2022-12-20T15:43:11;29.10;;;12.85;;
52104;SDS011;38103;42.776;23.112;2022-12-20T15:45:38;28.75;;;12.40;;
52104;SDS011;38103;42.776;23.112;2022-12-20T15:48:07;22.92;;;11.63;;
52104;SDS011;38103;42.776;23.112;2022-12-20T15:50:37;28.13;;;11.23;;
52104;SDS011;38103;42.776;23.112;2022-12-20T15:53:04;28.67;;;11.25;;
52104;SDS011;38103;42.776;23.112;2022-12-20T15:55:29;25.80;;;10.93;;
52104;SDS011;38103;42.776;23.112;2022-12-20T15:57:55;31.83;;;12.38;;
52104;SDS011;38103;42.776;23.112;2022-12-20T16:00:20;28.45;;;13.95;;
52104;SDS011;38103;42.776;23.112;2022-12-20T16:02:45;27.17;;;12.82;;
52104;SDS011;38103;42.776;23.112;2022-12-20T16:05:13;34.78;;;14.93;;
52104;SDS011;38103;42.776;23.112;2022-12-20T16:07:39;36.67;;;17.13;;
52104;SDS011;38103;42.776;23.112;2022-12-20T16:10:04;50.03;;;26.58;;
52104;SDS011;38103;42.776;23.112;2022-12-20T16:12:33;50.20;;;26.38;;
52104;SDS011;38103;42.776;23.112;2022-12-20T16:14:59;37.22;;;18.73;;
52104;SDS011;38103;42.776;23.112;2022-12-20T16:17:25;34.97;;;15.00;;
52104;SDS011;38103;42.776;23.112;2022-12-20T16:19:51;29.50;;;14.30;;